This is the latest recevied weather packets stored in our database for station/object N3WMC. If no packets are shown the sender has not sent any weather packets the latest 10 day(s).
| Time | Temp. | Humidity | Pressure | Rain* | Wind** | Luminosity | Snow |
|---|---|---|---|---|---|---|---|
| 1787757202 | 25° C | 67% | 1018.8 hPa | 0 mm | - | 509 W/m² | - |
| 1787756900 | 24.44° C | 70% | 1018.8 hPa | 0 mm | - | 473 W/m² | - |
| 1787756597 | 23.89° C | 71% | 1019 hPa | 0 mm | - | 480 W/m² | - |
| 1787756295 | 23.89° C | 74% | 1018.8 hPa | 0 mm | - | 505 W/m² | - |
| 1787755990 | 24.44° C | 73% | 1019 hPa | 0 mm | - | 451 W/m² | - |
| 1787755690 | 23.89° C | 73% | 1019 hPa | 0 mm | - | 473 W/m² | - |
| 1787755385 | 24.44° C | 73% | 1019.2 hPa | 0 mm | - | 337 W/m² | - |
| 1787755084 | 23.89° C | 74% | 1019.2 hPa | 0 mm | - | 500 W/m² | - |
| 1787754778 | 23.89° C | 73% | 1019.3 hPa | 0 mm | - | 496 W/m² | - |
| 1787754476 | 23.33° C | 75% | 1019.3 hPa | 0 mm | - | 483 W/m² | - |
| 1787754171 | 22.78° C | 75% | 1019.3 hPa | 0 mm | - | 468 W/m² | - |
| 1787753866 | 23.33° C | 75% | 1019.3 hPa | 0 mm | - | 364 W/m² | - |
| 1787753565 | 23.89° C | 71% | 1019.6 hPa | 0 mm | - | 435 W/m² | - |
| 1787753263 | 23.89° C | 72% | 1019.5 hPa | 0 mm | - | 422 W/m² | - |
| 1787752959 | 23.33° C | 73% | 1019.5 hPa | 0 mm | - | 426 W/m² | - |
| 1787752657 | 23.33° C | 75% | 1019.4 hPa | 0 mm | - | 419 W/m² | - |
| 1787752354 | 22.22° C | 78% | 1019.6 hPa | 0 mm | - | 412 W/m² | - |
| 1787752052 | 22.78° C | 77% | 1019.5 hPa | 0 mm | - | 347 W/m² | - |
| 1787751747 | 21.67° C | 79% | 1019.5 hPa | 0 mm | - | 337 W/m² | - |
| 1787751443 | 21.11° C | 81% | 1019.5 hPa | 0 mm | - | 359 W/m² | - |
| 1787751138 | 22.22° C | 76% | 1019.6 hPa | 0 mm | - | 368 W/m² | - |
| 1787750833 | 21.67° C | 79% | 1019.6 hPa | 0 mm | - | 350 W/m² | - |
| 1787750528 | 21.67° C | 80% | 1019.8 hPa | 0 mm | - | 346 W/m² | - |
| 1787750223 | 22.22° C | 78% | 1020 hPa | 0 mm | - | 336 W/m² | - |
| 1787749918 | 21.11° C | 82% | 1019.9 hPa | 0 mm | - | 326 W/m² | - |
* Rain latest hour (hover to see other rain measurements)
** Current wind speed in m/s (hover to see current wind gust speed)